Terminal Aerodrome Forecast
Issued by NWS

Home | Current Version | Previous Version | Graphics & Text | Print | Product List | Glossary On
Versions: 1 2 3 4 5 6 7 8 9 10 11 12 13 14 15 16
000
FTUS43 KBIS 220520
TAFDIK
TAF
KDIK 220520Z 2206/2306 17016G24KT P6SM SKC
     FM221000 25006KT P6SM FEW200
     FM221500 28007KT P6SM FEW250
     FM230000 31007KT P6SM FEW110 SCT250=

USA.gov is the U.S. government's official web portal to all federal, state and local government web resources and services.